sensor_id;sensor_type;location;lat;lon;timestamp;pressure;altitude;pressure_sealevel;temperature;humidity
77079;BME280;66004;55.096;38.760;2023-04-01T01:55:31;98838.25;;;2.45;75.56
77079;BME280;66004;55.096;38.760;2023-04-01T01:58:11;98840.72;;;2.47;75.73
77079;BME280;66004;55.096;38.760;2023-04-01T02:00:37;98840.72;;;2.47;75.82
77079;BME280;66004;55.096;38.760;2023-04-01T02:03:04;98832.22;;;2.52;75.79
77079;BME280;66004;55.096;38.760;2023-04-01T02:05:31;98831.41;;;2.51;75.66
77079;BME280;66004;55.096;38.760;2023-04-01T02:08:10;98834.88;;;2.57;75.37
77079;BME280;66004;55.096;38.760;2023-04-01T02:10:40;98831.81;;;2.59;75.57
77079;BME280;66004;55.096;38.760;2023-04-01T02:13:16;98836.69;;;2.62;75.35
77079;BME280;66004;55.096;38.760;2023-04-01T02:15:46;98840.00;;;2.64;75.63
77079;BME280;66004;55.096;38.760;2023-04-01T02:18:14;98836.69;;;2.62;75.08
77079;BME280;66004;55.096;38.760;2023-04-01T02:20:41;98838.16;;;2.59;75.62
77079;BME280;66004;55.096;38.760;2023-04-01T02:23:09;98847.00;;;2.61;75.43
77079;BME280;66004;55.096;38.760;2023-04-01T02:25:37;98843.09;;;2.62;75.51
77079;BME280;66004;55.096;38.760;2023-04-01T02:28:05;98849.47;;;2.63;75.41
77079;BME280;66004;55.096;38.760;2023-04-01T02:30:34;98841.44;;;2.61;75.38
77079;BME280;66004;55.096;38.760;2023-04-01T02:33:01;98822.91;;;2.48;75.72
77079;BME280;66004;55.096;38.760;2023-04-01T02:35:27;98840.13;;;2.59;75.48
77079;BME280;66004;55.096;38.760;2023-04-01T02:37:54;98838.16;;;2.59;75.50
77079;BME280;66004;55.096;38.760;2023-04-01T02:40:20;98860.25;;;2.64;75.57
77079;BME280;66004;55.096;38.760;2023-04-01T02:42:46;98864.47;;;2.62;75.50
77079;BME280;66004;55.096;38.760;2023-04-01T02:45:12;98864.16;;;2.63;75.25
77079;BME280;66004;55.096;38.760;2023-04-01T02:47:38;98855.63;;;2.60;75.40
77079;BME280;66004;55.096;38.760;2023-04-01T02:52:43;98872.47;;;2.63;75.10
77079;BME280;66004;55.096;38.760;2023-04-01T02:55:09;98881.13;;;2.62;75.25
77079;BME280;66004;55.096;38.760;2023-04-01T02:57:34;98874.75;;;2.61;75.49
77079;BME280;66004;55.096;38.760;2023-04-01T03:00:00;98867.19;;;2.53;75.56
77079;BME280;66004;55.096;38.760;2023-04-01T03:02:25;98863.28;;;2.54;75.35
77079;BME280;66004;55.096;38.760;2023-04-01T03:04:51;98886.25;;;2.68;75.80
77079;BME280;66004;55.096;38.760;2023-04-01T03:07:16;98886.25;;;2.68;75.56
77079;BME280;66004;55.096;38.760;2023-04-01T03:09:42;98882.34;;;2.69;75.53
77079;BME280;66004;55.096;38.760;2023-04-01T03:12:07;98888.25;;;2.77;75.46
77079;BME280;66004;55.096;38.760;2023-04-01T03:14:33;98879.41;;;2.75;75.36
77079;BME280;66004;55.096;38.760;2023-04-01T03:16:58;98883.72;;;2.81;75.27
77079;BME280;66004;55.096;38.760;2023-04-01T03:19:24;98869.84;;;2.81;75.36
77079;BME280;66004;55.096;38.760;2023-04-01T03:21:49;98866.41;;;2.84;75.26
77079;BME280;66004;55.096;38.760;2023-04-01T03:24:15;98867.06;;;2.81;75.26
77079;BME280;66004;55.096;38.760;2023-04-01T03:26:40;98871.47;;;2.82;75.21
77079;BME280;66004;55.096;38.760;2023-04-01T03:29:06;98874.94;;;2.87;75.16
77079;BME280;66004;55.096;38.760;2023-04-01T03:31:31;98876.22;;;2.81;75.01
77079;BME280;66004;55.096;38.760;2023-04-01T03:33:57;98871.59;;;2.77;75.02
77079;BME280;66004;55.096;38.760;2023-04-01T03:36:22;98887.50;;;2.85;75.20
77079;BME280;66004;55.096;38.760;2023-04-01T03:38:48;98894.69;;;2.86;75.30
77079;BME280;66004;55.096;38.760;2023-04-01T03:41:15;98901.25;;;2.90;75.22
77079;BME280;66004;55.096;38.760;2023-04-01T03:43:41;98903.41;;;2.93;74.90
77079;BME280;66004;55.096;38.760;2023-04-01T03:46:06;98893.94;;;2.94;75.35
77079;BME280;66004;55.096;38.760;2023-04-01T03:48:32;98880.81;;;2.86;75.25
77079;BME280;66004;55.096;38.760;2023-04-01T03:50:58;98899.69;;;2.98;75.10
77079;BME280;66004;55.096;38.760;2023-04-01T03:53:23;98902.50;;;3.06;75.09
77079;BME280;66004;55.096;38.760;2023-04-01T03:55:50;98897.94;;;3.10;75.01
77079;BME280;66004;55.096;38.760;2023-04-01T03:58:16;98910.06;;;3.15;74.89
77079;BME280;66004;55.096;38.760;2023-04-01T04:00:42;98918.25;;;3.20;74.66
77079;BME280;66004;55.096;38.760;2023-04-01T04:03:08;98916.63;;;3.19;74.43
77079;BME280;66004;55.096;38.760;2023-04-01T04:05:34;98919.91;;;3.21;74.36
77079;BME280;66004;55.096;38.760;2023-04-01T04:07:59;98924.19;;;3.27;74.36
77079;BME280;66004;55.096;38.760;2023-04-01T04:10:25;98935.31;;;3.27;74.38
77079;BME280;66004;55.096;38.760;2023-04-01T04:12:51;98932.03;;;3.25;74.25
77079;BME280;66004;55.096;38.760;2023-04-01T04:15:17;98936.78;;;3.24;74.18
77079;BME280;66004;55.096;38.760;2023-04-01T04:17:44;98932.66;;;3.22;74.36
77079;BME280;66004;55.096;38.760;2023-04-01T04:20:09;98934.31;;;3.23;74.29
77079;BME280;66004;55.096;38.760;2023-04-01T04:22:35;98931.22;;;3.24;74.11
77079;BME280;66004;55.096;38.760;2023-04-01T04:25:00;98943.50;;;3.32;73.97
77079;BME280;66004;55.096;38.760;2023-04-01T04:27:26;98933.34;;;3.27;74.10
77079;BME280;66004;55.096;38.760;2023-04-01T04:29:52;98938.78;;;3.33;74.06
77079;BME280;66004;55.096;38.760;2023-04-01T04:32:17;98928.13;;;3.26;73.73
77079;BME280;66004;55.096;38.760;2023-04-01T04:34:42;98932.03;;;3.25;74.11
77079;BME280;66004;55.096;38.760;2023-04-01T04:37:08;98935.94;;;3.24;74.22
77079;BME280;66004;55.096;38.760;2023-04-01T04:39:34;98937.94;;;3.32;74.17
77079;BME280;66004;55.096;38.760;2023-04-01T04:41:59;98919.91;;;3.21;74.15
77079;BME280;66004;55.096;38.760;2023-04-01T04:44:25;98937.28;;;3.35;73.92
77079;BME280;66004;55.096;38.760;2023-04-01T04:46:51;98941.41;;;3.38;73.82
77079;BME280;66004;55.096;38.760;2023-04-01T04:49:16;98946.16;;;3.37;73.81
77079;BME280;66004;55.096;38.760;2023-04-01T04:51:42;98943.88;;;3.39;73.74
77079;BME280;66004;55.096;38.760;2023-04-01T04:54:08;98928.47;;;3.33;73.68
77079;BME280;66004;55.096;38.760;2023-04-01T04:56:34;98946.00;;;3.42;73.74
77079;BME280;66004;55.096;38.760;2023-04-01T04:59:01;98960.91;;;3.46;73.70
77079;BME280;66004;55.096;38.760;2023-04-01T05:01:27;98964.22;;;3.48;73.39
77079;BME280;66004;55.096;38.760;2023-04-01T05:03:52;98953.09;;;3.48;73.52
77079;BME280;66004;55.096;38.760;2023-04-01T05:06:19;98965.53;;;3.60;73.65
77079;BME280;66004;55.096;38.760;2023-04-01T05:08:45;98967.88;;;3.66;73.27
77079;BME280;66004;55.096;38.760;2023-04-01T05:11:16;98966.28;;;3.74;73.03
77079;BME280;66004;55.096;38.760;2023-04-01T05:13:43;98975.13;;;3.76;72.86
77079;BME280;66004;55.096;38.760;2023-04-01T05:16:10;98964.66;;;3.73;73.02
77079;BME280;66004;55.096;38.760;2023-04-01T05:18:36;98980.72;;;3.85;72.63
77079;BME280;66004;55.096;38.760;2023-04-01T05:21:02;98979.13;;;3.93;72.41
77079;BME280;66004;55.096;38.760;2023-04-01T05:23:27;98976.19;;;3.98;72.58
77079;BME280;66004;55.096;38.760;2023-04-01T05:25:53;98962.78;;;4.00;72.04
77079;BME280;66004;55.096;38.760;2023-04-01T05:28:19;98974.94;;;4.13;72.26
77079;BME280;66004;55.096;38.760;2023-04-01T05:30:45;98979.84;;;4.24;72.04
77079;BME280;66004;55.096;38.760;2023-04-01T05:33:12;98981.84;;;4.33;71.82
77079;BME280;66004;55.096;38.760;2023-04-01T05:35:39;98971.84;;;4.40;71.64
77079;BME280;66004;55.096;38.760;2023-04-01T05:38:05;98970.41;;;4.43;71.64
77079;BME280;66004;55.096;38.760;2023-04-01T05:40:31;98996.59;;;4.59;71.59
77079;BME280;66004;55.096;38.760;2023-04-01T05:42:58;98984.00;;;4.62;71.42
77079;BME280;66004;55.096;38.760;2023-04-01T05:45:24;98995.31;;;4.65;71.11
77079;BME280;66004;55.096;38.760;2023-04-01T05:47:49;98984.66;;;4.59;70.89
77079;BME280;66004;55.096;38.760;2023-04-01T05:50:15;98981.38;;;4.57;70.79
77079;BME280;66004;55.096;38.760;2023-04-01T05:52:41;98990.25;;;4.67;70.89
77079;BME280;66004;55.096;38.760;2023-04-01T05:55:07;98993.38;;;4.75;70.86
77079;BME280;66004;55.096;38.760;2023-04-01T05:57:32;98990.72;;;4.87;70.57
77079;BME280;66004;55.096;38.760;2023-04-01T05:59:58;98974.00;;;4.87;70.36
77079;BME280;66004;55.096;38.760;2023-04-01T06:02:23;98996.63;;;4.94;70.13
77079;BME280;66004;55.096;38.760;2023-04-01T06:04:49;99012.03;;;5.00;69.98
77079;BME280;66004;55.096;38.760;2023-04-01T06:07:19;99012.03;;;5.00;69.63
77079;BME280;66004;55.096;38.760;2023-04-01T06:09:45;99013.00;;;5.04;69.68
77079;BME280;66004;55.096;38.760;2023-04-01T06:12:29;99014.03;;;5.09;69.72
77079;BME280;66004;55.096;38.760;2023-04-01T06:18:19;99026.31;;;5.07;69.15
77079;BME280;66004;55.096;38.760;2023-04-01T06:26:30;99031.69;;;5.30;68.82
77079;BME280;66004;55.096;38.760;2023-04-01T06:29:18;99029.06;;;5.25;68.70
77079;BME280;66004;55.096;38.760;2023-04-01T06:38:19;99031.84;;;5.51;68.23
77079;BME280;66004;55.096;38.760;2023-04-01T06:54:30;99038.94;;;5.87;67.33
77079;BME280;66004;55.096;38.760;2023-04-01T06:57:05;99042.25;;;5.98;67.32
77079;BME280;66004;55.096;38.760;2023-04-01T06:59:38;99046.47;;;6.04;67.37
77079;BME280;66004;55.096;38.760;2023-04-01T07:04:39;99045.50;;;6.09;67.04
77079;BME280;66004;55.096;38.760;2023-04-01T07:07:12;99062.97;;;6.27;66.97
77079;BME280;66004;55.096;38.760;2023-04-01T07:09:43;99051.00;;;6.26;66.60
77079;BME280;66004;55.096;38.760;2023-04-01T07:15:11;99071.66;;;6.34;66.56
77079;BME280;66004;55.096;38.760;2023-04-01T07:17:41;99071.69;;;6.25;66.73
77079;BME280;66004;55.096;38.760;2023-04-01T07:20:32;99074.53;;;6.16;66.95
77079;BME280;66004;55.096;38.760;2023-04-01T07:23:03;99068.94;;;6.16;66.87
77079;BME280;66004;55.096;38.760;2023-04-01T07:25:39;99059.97;;;6.02;66.63
77079;BME280;66004;55.096;38.760;2023-04-01T07:28:12;99079.50;;;6.02;66.73
77079;BME280;66004;55.096;38.760;2023-04-01T07:31:22;99082.97;;;5.90;67.14
77079;BME280;66004;55.096;38.760;2023-04-01T07:34:01;99087.59;;;5.77;67.39
77079;BME280;66004;55.096;38.760;2023-04-01T07:37:06;99092.03;;;5.78;67.37
77079;BME280;66004;55.096;38.760;2023-04-01T07:45:36;99101.00;;;5.93;67.26
77079;BME280;66004;55.096;38.760;2023-04-01T07:50:54;99107.13;;;5.77;67.55
77079;BME280;66004;55.096;38.760;2023-04-01T07:53:28;99103.31;;;5.82;67.56
77079;BME280;66004;55.096;38.760;2023-04-01T07:58:53;99104.81;;;5.79;67.62
77079;BME280;66004;55.096;38.760;2023-04-01T08:02:04;99109.75;;;5.82;67.37
77079;BME280;66004;55.096;38.760;2023-04-01T08:07:33;99121.72;;;5.92;66.86
77079;BME280;66004;55.096;38.760;2023-04-01T08:10:24;99130.75;;;5.89;66.94
77079;BME280;66004;55.096;38.760;2023-04-01T08:18:14;99142.53;;;6.20;66.45
77079;BME280;66004;55.096;38.760;2023-04-01T08:25:39;99139.19;;;6.74;65.09
77079;BME280;66004;55.096;38.760;2023-04-01T08:28:21;99135.19;;;6.84;64.98
77079;BME280;66004;55.096;38.760;2023-04-01T08:31:00;99149.84;;;6.81;64.73
77079;BME280;66004;55.096;38.760;2023-04-01T08:33:31;99149.47;;;6.91;64.68
77079;BME280;66004;55.096;38.760;2023-04-01T08:36:08;99150.97;;;7.10;64.28
77079;BME280;66004;55.096;38.760;2023-04-01T08:39:04;99159.13;;;7.24;64.08
77079;BME280;66004;55.096;38.760;2023-04-01T09:39:31;99212.16;;;8.37;59.90
77079;BME280;66004;55.096;38.760;2023-04-01T09:44:36;99210.50;;;8.70;59.46
77079;BME280;66004;55.096;38.760;2023-04-01T10:15:15;99220.34;;;8.76;58.76
77079;BME280;66004;55.096;38.760;2023-04-01T10:23:29;99238.97;;;8.47;59.26
77079;BME280;66004;55.096;38.760;2023-04-01T10:26:33;99237.34;;;8.58;58.60
77079;BME280;66004;55.096;38.760;2023-04-01T10:40:33;99240.69;;;8.85;57.72
77079;BME280;66004;55.096;38.760;2023-04-01T10:46:15;99254.09;;;8.80;57.60
77079;BME280;66004;55.096;38.760;2023-04-01T11:00:24;99236.81;;;8.77;57.83
77079;BME280;66004;55.096;38.760;2023-04-01T11:25:15;99267.97;;;8.51;57.64
77079;BME280;66004;55.096;38.760;2023-04-01T11:36:24;99268.56;;;8.57;57.34
77079;BME280;66004;55.096;38.760;2023-04-01T11:42:06;99265.69;;;8.90;56.84
77079;BME280;66004;55.096;38.760;2023-04-01T11:44:40;99256.25;;;9.07;56.22
77079;BME280;66004;55.096;38.760;2023-04-01T11:53:20;99254.53;;;9.92;54.54
77079;BME280;66004;55.096;38.760;2023-04-01T11:56:09;99260.47;;;10.03;53.89
77079;BME280;66004;55.096;38.760;2023-04-01T12:01:15;99266.09;;;10.03;53.59
77079;BME280;66004;55.096;38.760;2023-04-01T12:12:29;99268.97;;;9.91;53.72
77079;BME280;66004;55.096;38.760;2023-04-01T12:15:26;99260.66;;;9.82;53.97
77079;BME280;66004;55.096;38.760;2023-04-01T12:18:23;99260.53;;;9.79;53.57
77079;BME280;66004;55.096;38.760;2023-04-01T12:23:42;99254.75;;;9.47;54.58
77079;BME280;66004;55.096;38.760;2023-04-01T12:26:35;99254.75;;;9.47;54.83
77079;BME280;66004;55.096;38.760;2023-04-01T12:52:03;99272.28;;;9.07;56.70
77079;BME280;66004;55.096;38.760;2023-04-01T13:06:27;99284.31;;;8.95;57.56
77079;BME280;66004;55.096;38.760;2023-04-01T13:09:23;99288.94;;;8.91;57.42
77079;BME280;66004;55.096;38.760;2023-04-01T13:12:24;99274.94;;;8.91;57.60
77079;BME280;66004;55.096;38.760;2023-04-01T13:18:16;99293.31;;;9.01;57.46
77079;BME280;66004;55.096;38.760;2023-04-01T13:23:33;99299.38;;;8.90;58.05
77079;BME280;66004;55.096;38.760;2023-04-01T13:32:25;99302.63;;;8.92;58.07
77079;BME280;66004;55.096;38.760;2023-04-01T13:35:11;99307.31;;;8.88;58.38
77079;BME280;66004;55.096;38.760;2023-04-01T13:37:54;99314.09;;;8.87;58.56
77079;BME280;66004;55.096;38.760;2023-04-01T13:43:15;99296.28;;;8.71;59.10
77079;BME280;66004;55.096;38.760;2023-04-01T13:59:08;99321.94;;;8.61;60.11
77079;BME280;66004;55.096;38.760;2023-04-01T14:10:10;99330.13;;;8.53;60.26
77079;BME280;66004;55.096;38.760;2023-04-01T14:13:06;99337.91;;;8.48;60.31
77079;BME280;66004;55.096;38.760;2023-04-01T14:15:53;99343.72;;;8.43;60.66
77079;BME280;66004;55.096;38.760;2023-04-01T14:18:52;99351.31;;;8.42;60.90
77079;BME280;66004;55.096;38.760;2023-04-01T14:45:17;99382.94;;;8.22;62.10
77079;BME280;66004;55.096;38.760;2023-04-01T14:48:17;99384.06;;;8.21;62.36
77079;BME280;66004;55.096;38.760;2023-04-01T20:16:07;99604.06;;;6.75;73.73
77079;BME280;66004;55.096;38.760;2023-04-01T20:21:18;99612.94;;;6.77;73.55
77079;BME280;66004;55.096;38.760;2023-04-01T20:24:04;99621.34;;;6.77;73.56
77079;BME280;66004;55.096;38.760;2023-04-01T20:26:35;99621.34;;;6.77;73.55
77079;BME280;66004;55.096;38.760;2023-04-01T20:31:42;99633.66;;;6.76;73.77
77079;BME280;66004;55.096;38.760;2023-04-01T20:45:36;99646.66;;;6.72;73.80
77079;BME280;66004;55.096;38.760;2023-04-01T20:55:56;99647.09;;;6.56;73.90
77079;BME280;66004;55.096;38.760;2023-04-01T20:58:53;99655.97;;;6.58;74.16
77079;BME280;66004;55.096;38.760;2023-04-01T21:01:40;99659.25;;;6.60;74.15
77079;BME280;66004;55.096;38.760;2023-04-01T21:09:26;99663.03;;;6.56;74.59
77079;BME280;66004;55.096;38.760;2023-04-01T21:17:07;99667.50;;;6.66;74.47
77079;BME280;66004;55.096;38.760;2023-04-01T21:19:42;99662.91;;;6.70;74.45
77079;BME280;66004;55.096;38.760;2023-04-01T21:39:54;99675.09;;;6.74;74.46
77079;BME280;66004;55.096;38.760;2023-04-01T21:47:47;99680.22;;;6.80;74.40
77079;BME280;66004;55.096;38.760;2023-04-01T21:50:38;99669.88;;;6.81;74.42
77079;BME280;66004;55.096;38.760;2023-04-01T21:53:24;99680.22;;;6.80;74.39
77079;BME280;66004;55.096;38.760;2023-04-01T22:02:02;99676.09;;;6.78;74.54
77079;BME280;66004;55.096;38.760;2023-04-01T22:07:21;99686.78;;;6.76;74.65
77079;BME280;66004;55.096;38.760;2023-04-01T22:13:05;99692.88;;;6.78;74.51
77079;BME280;66004;55.096;38.760;2023-04-01T22:18:32;99664.84;;;6.60;74.65
77079;BME280;66004;55.096;38.760;2023-04-01T22:21:16;99676.41;;;6.68;75.12
77079;BME280;66004;55.096;38.760;2023-04-01T22:26:31;99702.78;;;6.84;74.71
77079;BME280;66004;55.096;38.760;2023-04-01T22:29:02;99704.41;;;6.85;74.63
77079;BME280;66004;55.096;38.760;2023-04-01T22:31:53;99708.38;;;6.84;74.67
77079;BME280;66004;55.096;38.760;2023-04-01T22:42:45;99707.06;;;6.90;74.52
77079;BME280;66004;55.096;38.760;2023-04-01T22:45:33;99707.06;;;6.90;74.60
77079;BME280;66004;55.096;38.760;2023-04-01T22:51:22;99711.66;;;6.86;74.75
77079;BME280;66004;55.096;38.760;2023-04-01T22:53:59;99703.91;;;6.83;74.54
77079;BME280;66004;55.096;38.760;2023-04-01T22:56:35;99691.38;;;6.72;74.99
77079;BME280;66004;55.096;38.760;2023-04-01T22:59:16;99705.72;;;6.79;74.72
77079;BME280;66004;55.096;38.760;2023-04-01T23:01:49;99709.00;;;6.81;74.86
77079;BME280;66004;55.096;38.760;2023-04-01T23:04:23;99695.84;;;6.73;74.69
77079;BME280;66004;55.096;38.760;2023-04-01T23:06:55;99704.06;;;6.78;74.80
77079;BME280;66004;55.096;38.760;2023-04-01T23:09:28;99711.94;;;6.76;74.77
77079;BME280;66004;55.096;38.760;2023-04-01T23:11:57;99709.66;;;6.78;74.88
77079;BME280;66004;55.096;38.760;2023-04-01T23:14:36;99699.25;;;6.70;75.00
77079;BME280;66004;55.096;38.760;2023-04-01T23:22:39;99722.94;;;6.72;75.02
77079;BME280;66004;55.096;38.760;2023-04-01T23:28:05;99722.59;;;6.65;75.06
77079;BME280;66004;55.096;38.760;2023-04-01T23:33:13;99720.75;;;6.60;75.15
77079;BME280;66004;55.096;38.760;2023-04-01T23:35:51;99722.41;;;6.61;75.33
77079;BME280;66004;55.096;38.760;2023-04-01T23:38:20;99718.47;;;6.62;75.41
77079;BME280;66004;55.096;38.760;2023-04-01T23:40:49;99706.91;;;6.55;75.39
77079;BME280;66004;55.096;38.760;2023-04-01T23:43:30;99734.59;;;6.66;75.32
77079;BME280;66004;55.096;38.760;2023-04-01T23:45:58;99719.94;;;6.60;75.43
77079;BME280;66004;55.096;38.760;2023-04-01T23:48:45;99734.78;;;6.69;75.33
77079;BME280;66004;55.096;38.760;2023-04-01T23:51:29;99723.56;;;6.60;75.21
77079;BME280;66004;55.096;38.760;2023-04-01T23:56:51;99736.09;;;6.72;75.26
77079;BME280;66004;55.096;38.760;2023-04-01T23:59:22;99742.84;;;6.71;75.03
